Rockledge, Florida
Current Conditions -  °F | °C
As of 9:58 AM on Wednesday 22 Oct 2014 (Local Time) from KCOF Reporting Station
Clear Clear  
Wind Chill: 75°   Ceiling: Unl
Heat Index: 75°   Visibility: 10mi
Dew Point: 71°   Wind: 9mph
Humidity: 87%   Direction: 320°NW
Pressure: 29.99"   Gusts: NA
Location:  28.33°N, 80.73°W
Report Text: KCOF 221358Z AUTO 32008KT 10SM CLR 24/22 A2999 RMK AO2 SLP160 T02400217
Loading
Personal Weather Stations






























Interactive Weather Map
Tropical Storm Tracking
New forecast layout! Learn more

10-Day Weather Forecast

Advertisements
Track Severe Weather on mobile